createdAt,value
2023-03-08T00:01:23.041Z,72.05
2023-03-08T00:03:54.707Z,70.89
2023-03-08T00:06:21.587Z,69.96
2023-03-08T00:08:49.541Z,70.72
2023-03-08T00:11:16.602Z,70.29
2023-03-08T00:13:43.100Z,69.04
2023-03-08T00:16:12.237Z,69.28
2023-03-08T00:18:39.094Z,69.05
2023-03-08T00:21:08.102Z,69.16
2023-03-08T00:23:34.908Z,69.28
2023-03-08T00:26:01.840Z,69.65
2023-03-08T00:28:28.651Z,68.42
2023-03-08T00:30:59.321Z,68.41
2023-03-08T00:33:27.086Z,68.16
2023-03-08T00:36:00.475Z,67.54
2023-03-08T00:38:27.706Z,66.98
2023-03-08T00:40:54.472Z,67.78
2023-03-08T00:43:21.143Z,68.43
2023-03-08T00:45:50.109Z,68.57
2023-03-08T00:48:18.408Z,67.30
2023-03-08T00:50:45.283Z,68.89
2023-03-08T00:53:11.903Z,67.92
2023-03-08T00:55:39.063Z,67.90
2023-03-08T00:58:06.072Z,68.11
2023-03-08T01:00:32.937Z,67.36
2023-03-08T01:03:01.746Z,67.92
2023-03-08T01:05:28.283Z,68.69
2023-03-08T01:07:56.132Z,68.24
2023-03-08T01:10:22.656Z,68.64
2023-03-08T01:12:49.170Z,68.46
2023-03-08T01:15:15.678Z,68.12
2023-03-08T01:17:42.201Z,68.31
2023-03-08T01:20:09.377Z,67.53
2023-03-08T01:22:36.147Z,66.87
2023-03-08T01:25:02.724Z,67.01
2023-03-08T01:27:29.272Z,68.52
2023-03-08T01:29:55.785Z,67.96
2023-03-08T01:32:22.293Z,68.06
2023-03-08T01:34:49.049Z,66.93
2023-03-08T01:37:15.623Z,67.58
2023-03-08T01:39:42.585Z,67.20
2023-03-08T01:42:09.220Z,67.74
2023-03-08T01:44:53.585Z,67.58
2023-03-08T01:47:25.756Z,66.22
2023-03-08T01:49:54.245Z,67.20
2023-03-08T01:52:29.056Z,67.19
2023-03-08T01:54:58.763Z,67.25
2023-03-08T01:57:31.752Z,66.58
2023-03-08T02:00:14.379Z,66.06
2023-03-08T02:02:44.848Z,65.87
2023-03-08T02:05:11.475Z,66.30
2023-03-08T02:07:38.016Z,65.38
2023-03-08T02:10:04.928Z,65.03
2023-03-08T02:12:31.779Z,65.03
2023-03-08T02:14:58.514Z,64.84
2023-03-08T02:17:26.015Z,66.34
2023-03-08T02:20:15.115Z,65.29
2023-03-08T02:22:43.472Z,65.17
2023-03-08T02:25:23.696Z,67.01
2023-03-08T02:27:51.991Z,68.97
2023-03-08T02:30:24.699Z,66.74
2023-03-08T02:32:51.389Z,65.59
2023-03-08T02:35:18.462Z,65.63
2023-03-08T02:37:44.992Z,64.98
2023-03-08T02:40:12.252Z,66.66
2023-03-08T02:42:39.072Z,66.97
2023-03-08T02:45:06.937Z,65.94
2023-03-08T02:47:34.004Z,65.46
2023-03-08T02:50:00.580Z,65.43
2023-03-08T02:52:27.287Z,64.84
2023-03-08T02:54:53.940Z,64.24
2023-03-08T02:57:21.497Z,64.36
2023-03-08T02:59:48.111Z,64.62
2023-03-08T03:02:15.127Z,65.21
2023-03-08T03:04:41.697Z,63.98
2023-03-08T03:07:08.300Z,63.34
2023-03-08T03:09:35.751Z,63.14
2023-03-08T03:12:02.598Z,62.76
2023-03-08T03:14:29.399Z,62.99
2023-03-08T03:16:55.899Z,63.03
2023-03-08T03:19:22.607Z,62.15
2023-03-08T03:21:49.090Z,63.66
2023-03-08T03:24:15.932Z,63.44
2023-03-08T03:26:42.440Z,62.67
2023-03-08T03:29:09.178Z,62.91
2023-03-08T03:31:35.905Z,63.02
2023-03-08T03:34:02.549Z,63.59
2023-03-08T03:36:29.056Z,63.43
2023-03-08T03:38:55.525Z,63.69
2023-03-08T03:41:23.240Z,64.18
2023-03-08T03:43:50.304Z,65.49
2023-03-08T03:46:19.018Z,65.72
2023-03-08T03:48:46.200Z,64.96
2023-03-08T03:51:15.066Z,64.19
2023-03-08T03:53:42.037Z,63.69
2023-03-08T03:56:13.223Z,63.83
2023-03-08T03:58:39.980Z,63.37
2023-03-08T04:01:17.200Z,63.32
2023-03-08T04:03:44.826Z,63.19
2023-03-08T04:06:14.568Z,63.47
2023-03-08T04:08:42.522Z,63.90
2023-03-08T04:11:15.120Z,66.53
2023-03-08T04:13:42.290Z,65.78
2023-03-08T04:16:14.060Z,65.63
2023-03-08T04:18:41.128Z,65.16
2023-03-08T04:21:07.944Z,64.83
2023-03-08T04:23:34.728Z,64.69
2023-03-08T04:26:01.735Z,64.94
2023-03-08T04:28:29.069Z,64.82
2023-03-08T04:30:55.864Z,63.39
2023-03-08T04:33:22.401Z,64.10
2023-03-08T04:35:49.233Z,63.61
2023-03-08T04:38:16.352Z,64.09
2023-03-08T04:41:11.221Z,63.21
2023-03-08T04:43:39.453Z,63.24
2023-03-08T04:46:07.173Z,63.20
2023-03-08T04:48:33.805Z,64.00
2023-03-08T04:51:02.339Z,64.09
2023-03-08T04:53:29.626Z,62.91
2023-03-08T04:55:56.546Z,63.49
2023-03-08T04:58:23.433Z,62.84
2023-03-08T05:00:50.097Z,62.21
2023-03-08T05:03:16.666Z,62.54
2023-03-08T05:05:51.046Z,62.79
2023-03-08T05:08:18.401Z,62.15
2023-03-08T05:11:04.591Z,61.48
2023-03-08T05:13:33.908Z,61.18
2023-03-08T05:16:00.838Z,60.83
2023-03-08T05:18:27.379Z,61.09
2023-03-08T05:21:05.702Z,60.41
2023-03-08T05:23:33.023Z,60.66
2023-03-08T05:26:01.051Z,61.00
2023-03-08T05:28:29.995Z,60.47
2023-03-08T05:31:02.668Z,60.24
2023-03-08T05:33:29.991Z,60.17
2023-03-08T05:35:56.993Z,60.61
2023-03-08T05:38:24.356Z,60.10
2023-03-08T05:40:51.365Z,60.14
2023-03-08T05:43:18.561Z,59.70
2023-03-08T05:45:57.810Z,60.41
2023-03-08T05:48:24.640Z,59.76
2023-03-08T05:50:51.477Z,59.79
2023-03-08T05:53:18.226Z,59.86
2023-03-08T05:55:45.077Z,59.39
2023-03-08T05:58:11.619Z,60.00
2023-03-08T06:00:38.512Z,59.55
2023-03-08T06:03:05.046Z,60.83
2023-03-08T06:05:33.108Z,60.36
2023-03-08T06:07:59.946Z,60.20
2023-03-08T06:10:27.186Z,62.54
2023-03-08T06:12:53.717Z,64.62
2023-03-08T06:15:20.272Z,63.73
2023-03-08T06:17:46.779Z,62.13
2023-03-08T06:20:16.749Z,62.68
2023-03-08T06:22:43.699Z,63.47
2023-03-08T06:25:10.309Z,62.93
2023-03-08T06:27:36.793Z,62.74
2023-03-08T06:30:03.621Z,61.93
2023-03-08T06:32:30.306Z,62.28
2023-03-08T06:34:56.806Z,62.97
2023-03-08T06:37:23.344Z,63.32
2023-03-08T06:39:49.884Z,64.14
2023-03-08T06:42:16.451Z,64.60
2023-03-08T06:44:42.995Z,65.40
2023-03-08T06:47:09.521Z,67.45
2023-03-08T06:49:36.154Z,66.58
2023-03-08T06:52:02.745Z,67.32
2023-03-08T06:54:29.281Z,66.81
2023-03-08T06:56:55.761Z,67.38
2023-03-08T06:59:22.290Z,68.02
2023-03-08T07:01:49.021Z,67.22
2023-03-08T07:04:17.984Z,67.88
2023-03-08T07:06:45.415Z,69.52
2023-03-08T07:09:13.772Z,70.90
2023-03-08T07:11:40.590Z,70.48
2023-03-08T07:14:07.218Z,68.91
2023-03-08T07:16:33.764Z,69.07
2023-03-08T07:19:02.123Z,70.33
2023-03-08T07:21:29.164Z,69.72
2023-03-08T07:23:55.671Z,69.31
2023-03-08T07:26:22.425Z,68.78
2023-03-08T07:28:50.399Z,67.86
2023-03-08T07:31:17.521Z,67.85
2023-03-08T07:33:44.443Z,67.47
2023-03-08T07:36:11.353Z,68.09
2023-03-08T07:38:38.271Z,67.69
2023-03-08T07:41:07.678Z,67.53
2023-03-08T07:43:34.418Z,67.47
2023-03-08T07:46:02.482Z,68.22
2023-03-08T07:48:31.043Z,69.83
2023-03-08T07:51:07.156Z,70.44
2023-03-08T07:53:33.926Z,70.47
2023-03-08T07:56:00.722Z,70.44
2023-03-08T07:58:28.352Z,71.07
2023-03-08T08:00:55.008Z,70.64
2023-03-08T08:03:21.674Z,71.32
2023-03-08T08:05:48.362Z,70.08
2023-03-08T08:08:14.924Z,69.25
2023-03-08T08:10:42.228Z,70.00
2023-03-08T08:13:09.351Z,69.10
2023-03-08T08:15:35.846Z,69.97
2023-03-08T08:18:02.362Z,69.42
2023-03-08T08:20:28.971Z,71.71
2023-03-08T08:22:55.554Z,71.78
2023-03-08T08:25:23.122Z,71.28
2023-03-08T08:27:51.167Z,71.24
2023-03-08T08:30:19.021Z,70.51
2023-03-08T08:32:45.615Z,71.27
2023-03-08T08:35:12.163Z,71.73
2023-03-08T08:37:38.760Z,71.64
2023-03-08T08:40:07.951Z,71.23
2023-03-08T08:42:34.606Z,70.30
2023-03-08T08:45:01.138Z,69.39
2023-03-08T08:47:29.651Z,70.53
2023-03-08T08:49:56.181Z,71.95
2023-03-08T08:52:23.035Z,70.92
2023-03-08T08:54:49.620Z,69.84
2023-03-08T08:57:16.183Z,69.72
2023-03-08T08:59:44.167Z,70.16
2023-03-08T09:02:11.987Z,70.94
2023-03-08T09:04:38.849Z,70.74
2023-03-08T09:07:07.356Z,69.62
2023-03-08T09:09:33.940Z,70.03
2023-03-08T09:12:00.436Z,70.12
2023-03-08T09:14:27.083Z,70.00
2023-03-08T09:16:53.750Z,69.80
2023-03-08T09:19:20.659Z,69.39
2023-03-08T09:21:47.261Z,68.77
2023-03-08T09:24:14.107Z,70.32
2023-03-08T09:26:40.643Z,69.18
2023-03-08T09:29:07.645Z,69.47
2023-03-08T09:31:36.415Z,68.42
2023-03-08T09:34:05.236Z,69.63
2023-03-08T09:36:31.798Z,69.23
2023-03-08T09:38:58.387Z,68.66
2023-03-08T09:41:28.065Z,69.54
2023-03-08T09:44:19.253Z,69.86
2023-03-08T09:46:49.888Z,69.55
2023-03-08T09:49:21.996Z,69.38
2023-03-08T09:51:53.913Z,69.62
2023-03-08T09:54:24.040Z,68.21
2023-03-08T09:56:52.536Z,68.56
2023-03-08T09:59:35.128Z,69.59
2023-03-08T10:02:01.631Z,68.92
2023-03-08T10:04:29.643Z,67.73
2023-03-08T10:07:05.179Z,68.53
2023-03-08T10:09:37.210Z,69.48
2023-03-08T10:12:30.426Z,69.05
2023-03-08T10:15:04.081Z,68.84
2023-03-08T10:17:48.954Z,67.20
2023-03-08T10:20:28.383Z,67.06
2023-03-08T10:23:07.323Z,67.54
2023-03-08T10:25:34.625Z,67.95
2023-03-08T10:28:04.245Z,66.70
2023-03-08T10:30:37.895Z,66.57
2023-03-08T10:33:08.565Z,65.29
2023-03-08T10:35:52.860Z,64.76
2023-03-08T10:38:22.814Z,64.61
2023-03-08T10:40:49.685Z,63.83
2023-03-08T10:43:28.762Z,63.14
2023-03-08T10:46:04.026Z,63.02
2023-03-08T10:48:31.523Z,62.92
2023-03-08T10:51:03.186Z,62.87
2023-03-08T10:53:30.266Z,63.11
2023-03-08T10:55:58.802Z,63.56
2023-03-08T10:58:30.484Z,63.84
2023-03-08T11:00:59.652Z,63.74
2023-03-08T11:03:26.802Z,64.37
2023-03-08T11:06:00.506Z,64.57
2023-03-08T11:08:36.188Z,64.41
2023-03-08T11:11:04.750Z,65.13
2023-03-08T11:13:32.017Z,64.42
2023-03-08T11:16:38.760Z,65.51
2023-03-08T11:19:30.201Z,66.44
2023-03-08T11:22:03.644Z,64.79
2023-03-08T11:24:57.842Z,63.95
2023-03-08T11:27:45.784Z,63.77
2023-03-08T11:30:33.431Z,63.32
2023-03-08T11:33:07.646Z,61.27
2023-03-08T11:35:43.254Z,62.11
2023-03-08T11:38:15.042Z,62.95
2023-03-08T11:40:59.362Z,61.92
2023-03-08T11:43:57.024Z,62.31
2023-03-08T11:46:29.964Z,63.59
2023-03-08T11:49:03.646Z,63.42
2023-03-08T11:51:34.087Z,64.88
2023-03-08T11:54:18.502Z,66.06
2023-03-08T11:57:07.480Z,64.38
2023-03-08T11:59:37.069Z,64.84
2023-03-08T12:02:06.805Z,65.18
2023-03-08T12:04:58.782Z,64.76
2023-03-08T12:07:39.235Z,64.86
2023-03-08T12:10:27.290Z,65.49
2023-03-08T12:13:02.671Z,64.83
2023-03-08T12:16:09.154Z,65.46
2023-03-08T12:18:55.034Z,65.89
2023-03-08T12:21:30.542Z,64.92
2023-03-08T12:24:09.347Z,65.51
2023-03-08T12:26:39.872Z,64.45
2023-03-08T12:29:16.616Z,64.99
2023-03-08T12:31:47.455Z,66.24
2023-03-08T12:34:27.379Z,65.39
2023-03-08T12:36:54.360Z,65.71
2023-03-08T12:39:30.471Z,64.50
2023-03-08T12:42:01.788Z,65.06
2023-03-08T12:44:31.817Z,64.99
2023-03-08T12:47:13.683Z,65.76
2023-03-08T12:49:42.740Z,64.71
2023-03-08T12:52:18.653Z,65.34
2023-03-08T12:54:56.956Z,66.25
2023-03-08T12:57:25.024Z,66.49
2023-03-08T13:00:00.814Z,64.94
2023-03-08T13:02:34.980Z,64.31
2023-03-08T13:05:21.198Z,64.13
2023-03-08T13:08:12.938Z,64.12
2023-03-08T13:11:04.363Z,64.94
2023-03-08T13:13:52.807Z,64.95
2023-03-08T13:16:30.505Z,65.68
2023-03-08T13:19:11.967Z,65.33
2023-03-08T13:21:41.523Z,65.37
2023-03-08T13:24:22.793Z,65.33
2023-03-08T13:27:30.476Z,64.38
2023-03-08T13:30:17.096Z,63.68
2023-03-08T13:32:44.396Z,62.90
2023-03-08T13:35:15.434Z,61.84
2023-03-08T13:37:42.380Z,63.24
2023-03-08T13:40:20.540Z,64.88
2023-03-08T13:43:00.320Z,64.24
2023-03-08T13:45:26.973Z,64.85
2023-03-08T13:47:55.913Z,63.46
2023-03-08T13:50:30.717Z,62.98
2023-03-08T13:52:57.959Z,63.71
2023-03-08T13:55:33.870Z,64.39
2023-03-08T13:58:01.264Z,64.19
2023-03-08T14:00:31.441Z,63.36
2023-03-08T14:03:00.066Z,63.22
2023-03-08T14:05:29.404Z,63.67
2023-03-08T14:08:07.480Z,64.62
2023-03-08T14:10:48.861Z,65.42
2023-03-08T14:13:27.868Z,64.88
2023-03-08T14:15:57.442Z,64.78
2023-03-08T14:18:36.588Z,64.17
2023-03-08T14:21:18.246Z,63.60
2023-03-08T14:23:53.553Z,63.62
2023-03-08T14:26:28.223Z,63.01
2023-03-08T14:29:22.752Z,62.47
2023-03-08T14:31:56.810Z,62.80
2023-03-08T14:34:59.541Z,63.27
2023-03-08T14:37:30.627Z,63.06
2023-03-08T14:40:19.822Z,63.71
2023-03-08T14:42:48.188Z,62.86
2023-03-08T14:45:23.025Z,62.24
2023-03-08T14:47:55.826Z,62.74
2023-03-08T14:50:25.590Z,62.97
2023-03-08T14:52:54.986Z,62.39
2023-03-08T14:55:26.105Z,61.41
2023-03-08T14:58:04.519Z,64.10
2023-03-08T15:00:31.891Z,63.63
2023-03-08T15:03:00.105Z,62.87
2023-03-08T15:05:29.431Z,61.73
2023-03-08T15:07:57.598Z,62.83
2023-03-08T15:10:40.002Z,63.26
2023-03-08T15:13:12.534Z,64.67
2023-03-08T15:15:39.091Z,64.29
2023-03-08T15:18:05.830Z,63.64
2023-03-08T15:20:32.552Z,63.91
2023-03-08T15:23:01.265Z,64.20
2023-03-08T15:25:30.178Z,63.24
2023-03-08T15:27:57.073Z,62.85
2023-03-08T15:30:26.570Z,64.14
2023-03-08T15:32:53.981Z,63.64
2023-03-08T15:35:20.627Z,63.28
2023-03-08T15:37:47.429Z,62.77
2023-03-08T15:40:16.646Z,63.42
2023-03-08T15:42:43.468Z,64.52
2023-03-08T15:45:10.831Z,63.09
2023-03-08T15:47:38.062Z,62.78
2023-03-08T15:50:07.042Z,62.88
2023-03-08T15:52:33.546Z,63.10
2023-03-08T15:55:00.105Z,62.44
2023-03-08T15:57:26.701Z,62.60
2023-03-08T15:59:53.245Z,63.35
2023-03-08T16:02:20.671Z,63.56
2023-03-08T16:04:49.104Z,63.37
2023-03-08T16:07:19.347Z,63.82
2023-03-08T16:09:46.896Z,63.35
2023-03-08T16:12:15.136Z,62.83
2023-03-08T16:14:47.785Z,62.75
2023-03-08T16:17:16.756Z,61.85
2023-03-08T16:19:43.986Z,61.97
2023-03-08T16:22:11.058Z,62.56
2023-03-08T16:24:37.817Z,62.98
2023-03-08T16:27:04.935Z,63.31
2023-03-08T16:29:33.063Z,63.12
2023-03-08T16:31:59.684Z,64.01
2023-03-08T16:34:27.447Z,65.12
2023-03-08T16:36:54.529Z,64.28
2023-03-08T16:39:21.360Z,64.94
2023-03-08T16:41:48.121Z,64.27
2023-03-08T16:44:26.889Z,63.79
2023-03-08T16:46:54.130Z,63.55
2023-03-08T16:49:22.687Z,64.23
2023-03-08T16:51:52.087Z,64.26
2023-03-08T16:54:21.783Z,63.71
2023-03-08T16:56:48.307Z,64.10
2023-03-08T16:59:15.472Z,64.04
2023-03-08T17:01:43.428Z,63.75
2023-03-08T17:04:10.850Z,64.44
2023-03-08T17:06:43.850Z,64.45
2023-03-08T17:09:11.997Z,64.69
2023-03-08T17:11:39.133Z,64.34
2023-03-08T17:14:08.594Z,64.45
2023-03-08T17:16:35.660Z,64.83
2023-03-08T17:19:05.305Z,64.19
2023-03-08T17:21:38.318Z,63.96
2023-03-08T17:24:11.380Z,64.16
2023-03-08T17:26:43.218Z,64.81
2023-03-08T17:29:10.203Z,63.40
2023-03-08T17:31:36.880Z,63.73
2023-03-08T17:34:04.576Z,64.39
2023-03-08T17:36:31.341Z,64.16
2023-03-08T17:38:57.984Z,64.85
2023-03-08T17:41:25.150Z,64.67
2023-03-08T17:43:58.240Z,64.69
2023-03-08T17:46:31.001Z,64.88
2023-03-08T17:48:57.555Z,65.74
2023-03-08T17:51:26.857Z,65.60
2023-03-08T17:53:53.919Z,66.46
2023-03-08T17:56:25.110Z,65.87
2023-03-08T17:58:52.544Z,66.83
2023-03-08T18:01:22.941Z,67.36
2023-03-08T18:03:50.258Z,66.99
2023-03-08T18:06:30.288Z,67.02
2023-03-08T18:08:58.057Z,66.13
2023-03-08T18:11:25.426Z,66.28
2023-03-08T18:13:52.565Z,65.74
2023-03-08T18:16:21.083Z,65.00
2023-03-08T18:18:49.853Z,64.62
2023-03-08T18:21:17.847Z,64.26
2023-03-08T18:23:44.858Z,64.10
2023-03-08T18:26:12.548Z,64.34
2023-03-08T18:28:39.848Z,65.62
2023-03-08T18:31:12.563Z,65.27
2023-03-08T18:33:39.826Z,65.39
2023-03-08T18:36:06.635Z,64.88
2023-03-08T18:38:33.350Z,64.34
2023-03-08T18:40:59.947Z,65.86
2023-03-08T18:43:26.731Z,65.92
2023-03-08T18:45:55.436Z,65.56
2023-03-08T18:48:24.186Z,65.21
2023-03-08T18:50:50.858Z,64.96
2023-03-08T18:53:17.656Z,64.89
2023-03-08T18:55:57.425Z,65.84
2023-03-08T18:58:25.821Z,65.08
2023-03-08T19:00:54.613Z,64.91
2023-03-08T19:03:21.310Z,65.72
2023-03-08T19:05:48.291Z,64.68
2023-03-08T19:08:15.111Z,65.14
2023-03-08T19:10:41.649Z,65.59
2023-03-08T19:13:08.272Z,67.59
2023-03-08T19:15:38.661Z,67.87
2023-03-08T19:18:06.456Z,68.25
2023-03-08T19:20:38.178Z,69.00
2023-03-08T19:23:04.790Z,67.68
2023-03-08T19:25:32.688Z,67.33
2023-03-08T19:27:59.391Z,67.73
2023-03-08T19:30:28.421Z,67.00
2023-03-08T19:32:56.131Z,67.01
2023-03-08T19:35:23.229Z,68.00
2023-03-08T19:37:49.778Z,68.82
2023-03-08T19:40:17.258Z,67.93
2023-03-08T19:42:44.090Z,67.96
2023-03-08T19:45:12.978Z,67.25
2023-03-08T19:47:39.529Z,66.94
2023-03-08T19:50:06.503Z,67.96
2023-03-08T19:52:33.116Z,67.91
2023-03-08T19:54:59.778Z,66.73
2023-03-08T19:57:26.547Z,66.63
2023-03-08T19:59:53.155Z,67.69
2023-03-08T20:02:19.704Z,67.55
2023-03-08T20:04:46.248Z,66.74
2023-03-08T20:07:13.031Z,66.82
2023-03-08T20:09:42.222Z,67.23
2023-03-08T20:12:09.700Z,66.78
2023-03-08T20:14:36.798Z,66.58
2023-03-08T20:17:05.160Z,66.87
2023-03-08T20:19:33.844Z,67.29
2023-03-08T20:22:00.627Z,67.05
2023-03-08T20:24:27.652Z,66.87
2023-03-08T20:26:54.353Z,68.19
2023-03-08T20:29:20.945Z,68.13
2023-03-08T20:31:48.215Z,69.01
2023-03-08T20:34:25.493Z,68.81
2023-03-08T20:36:56.192Z,67.87
2023-03-08T20:42:22.081Z,68.26
2023-03-08T20:45:19.281Z,68.82
2023-03-08T20:47:49.098Z,69.06
2023-03-08T20:50:15.917Z,68.55
2023-03-08T20:52:42.426Z,68.98
2023-03-08T20:55:09.297Z,69.34
2023-03-08T20:57:36.294Z,67.93
2023-03-08T21:00:04.964Z,68.42
2023-03-08T21:02:31.657Z,67.97
2023-03-08T21:04:58.214Z,67.83
2023-03-08T21:07:24.764Z,68.67
2023-03-08T21:09:51.237Z,68.06
2023-03-08T21:12:17.790Z,68.04
2023-03-08T21:14:44.291Z,67.53
2023-03-08T21:17:10.777Z,68.12
2023-03-08T21:19:37.341Z,67.68
2023-03-08T21:22:05.187Z,67.86
2023-03-08T21:24:31.720Z,67.31
2023-03-08T21:27:00.228Z,66.78
2023-03-08T21:29:28.185Z,66.92
2023-03-08T21:31:54.783Z,66.35
2023-03-08T21:34:21.643Z,66.05
2023-03-08T21:36:48.282Z,65.87
2023-03-08T21:39:15.060Z,65.93
2023-03-08T21:41:43.420Z,65.04
2023-03-08T21:44:13.676Z,66.16
2023-03-08T21:46:41.368Z,65.12
2023-03-08T21:49:10.313Z,64.61
2023-03-08T21:51:38.387Z,65.33
2023-03-08T21:54:05.997Z,64.40
2023-03-08T21:56:35.586Z,64.13
2023-03-08T21:59:02.315Z,65.05
2023-03-08T22:01:30.262Z,65.14
2023-03-08T22:03:57.861Z,65.01
2023-03-08T22:06:25.535Z,65.05
2023-03-08T22:08:52.472Z,65.16
2023-03-08T22:11:20.155Z,64.85
2023-03-08T22:13:55.062Z,66.30
2023-03-08T22:16:21.910Z,66.53
2023-03-08T22:18:52.100Z,66.45
2023-03-08T22:21:18.814Z,65.65
2023-03-08T22:23:45.489Z,66.32
2023-03-08T22:26:11.984Z,66.19
2023-03-08T22:28:38.800Z,65.86
2023-03-08T22:31:13.493Z,65.47
2023-03-08T22:33:40.407Z,65.40
2023-03-08T22:36:09.450Z,66.35
2023-03-08T22:38:36.340Z,65.82
2023-03-08T22:41:12.578Z,65.84
2023-03-08T22:43:42.588Z,66.25
2023-03-08T22:46:16.082Z,66.72
2023-03-08T22:48:44.072Z,66.01
2023-03-08T22:51:11.875Z,65.63
2023-03-08T22:53:39.486Z,65.76
2023-03-08T22:56:07.196Z,65.76
2023-03-08T22:58:33.847Z,65.81
2023-03-08T23:01:00.384Z,66.51
2023-03-08T23:03:26.934Z,66.39
2023-03-08T23:05:53.911Z,68.04
2023-03-08T23:08:21.520Z,66.86
2023-03-08T23:10:49.214Z,66.49
2023-03-08T23:13:31.213Z,66.58
2023-03-08T23:15:59.532Z,66.35
2023-03-08T23:18:26.260Z,67.26
2023-03-08T23:20:52.853Z,68.16
2023-03-08T23:23:19.463Z,67.26
2023-03-08T23:25:46.089Z,67.50
2023-03-08T23:28:12.612Z,68.01
2023-03-08T23:30:42.154Z,68.83
2023-03-08T23:33:08.705Z,68.36
2023-03-08T23:35:35.466Z,68.54
2023-03-08T23:38:02.045Z,68.84
2023-03-08T23:40:28.604Z,68.45
2023-03-08T23:42:55.178Z,67.28
2023-03-08T23:45:21.938Z,67.41
2023-03-08T23:47:48.504Z,67.61
2023-03-08T23:50:15.069Z,67.38
2023-03-08T23:52:41.865Z,66.94
2023-03-08T23:55:08.902Z,67.44
2023-03-08T23:57:35.671Z,66.35
